sensor_id;sensor_type;location;lat;lon;timestamp;P1;durP1;ratioP1;P2;durP2;ratioP2
70592;SDS011;58294;42.988;20.338;2023-06-26T00:01:25;32.80;;;25.50;;
70592;SDS011;58294;42.988;20.338;2023-06-26T00:03:54;34.90;;;25.50;;
70592;SDS011;58294;42.988;20.338;2023-06-26T00:06:20;30.23;;;23.30;;
70592;SDS011;58294;42.988;20.338;2023-06-26T00:08:49;34.53;;;24.98;;
70592;SDS011;58294;42.988;20.338;2023-06-26T00:11:16;32.05;;;22.85;;
70592;SDS011;58294;42.988;20.338;2023-06-26T00:13:42;28.45;;;22.73;;
70592;SDS011;58294;42.988;20.338;2023-06-26T00:16:07;27.90;;;22.27;;
70592;SDS011;58294;42.988;20.338;2023-06-26T00:18:33;25.25;;;19.85;;
70592;SDS011;58294;42.988;20.338;2023-06-26T00:20:59;29.77;;;21.98;;
70592;SDS011;58294;42.988;20.338;2023-06-26T00:23:25;30.75;;;24.02;;
70592;SDS011;58294;42.988;20.338;2023-06-26T00:25:52;49.58;;;33.72;;
70592;SDS011;58294;42.988;20.338;2023-06-26T00:28:18;38.13;;;28.58;;
70592;SDS011;58294;42.988;20.338;2023-06-26T00:30:44;35.05;;;27.25;;
70592;SDS011;58294;42.988;20.338;2023-06-26T00:33:10;36.38;;;26.35;;
70592;SDS011;58294;42.988;20.338;2023-06-26T00:35:35;37.10;;;25.38;;
70592;SDS011;58294;42.988;20.338;2023-06-26T00:38:01;36.42;;;25.73;;
70592;SDS011;58294;42.988;20.338;2023-06-26T00:40:27;37.72;;;27.10;;
70592;SDS011;58294;42.988;20.338;2023-06-26T00:42:53;51.30;;;33.97;;
70592;SDS011;58294;42.988;20.338;2023-06-26T00:45:19;46.88;;;31.30;;
70592;SDS011;58294;42.988;20.338;2023-06-26T00:47:45;38.95;;;26.10;;
70592;SDS011;58294;42.988;20.338;2023-06-26T00:50:11;39.58;;;27.63;;
70592;SDS011;58294;42.988;20.338;2023-06-26T00:52:37;52.83;;;36.95;;
70592;SDS011;58294;42.988;20.338;2023-06-26T00:55:03;45.25;;;31.23;;
70592;SDS011;58294;42.988;20.338;2023-06-26T00:57:30;40.47;;;26.50;;
70592;SDS011;58294;42.988;20.338;2023-06-26T00:59:56;35.55;;;26.83;;
70592;SDS011;58294;42.988;20.338;2023-06-26T01:02:22;45.33;;;31.58;;
70592;SDS011;58294;42.988;20.338;2023-06-26T01:04:48;60.45;;;37.28;;
70592;SDS011;58294;42.988;20.338;2023-06-26T01:07:15;44.55;;;30.42;;
70592;SDS011;58294;42.988;20.338;2023-06-26T01:09:43;46.13;;;28.70;;
70592;SDS011;58294;42.988;20.338;2023-06-26T01:12:12;36.63;;;24.85;;
70592;SDS011;58294;42.988;20.338;2023-06-26T01:14:38;32.22;;;23.55;;
70592;SDS011;58294;42.988;20.338;2023-06-26T01:17:04;42.60;;;25.60;;
70592;SDS011;58294;42.988;20.338;2023-06-26T01:19:31;29.52;;;22.95;;
70592;SDS011;58294;42.988;20.338;2023-06-26T01:27:50;41.45;;;29.13;;
70592;SDS011;58294;42.988;20.338;2023-06-26T01:30:18;41.95;;;27.42;;
70592;SDS011;58294;42.988;20.338;2023-06-26T01:32:46;41.25;;;27.75;;
70592;SDS011;58294;42.988;20.338;2023-06-26T01:35:12;29.58;;;23.85;;
70592;SDS011;58294;42.988;20.338;2023-06-26T01:37:39;36.42;;;25.55;;
70592;SDS011;58294;42.988;20.338;2023-06-26T01:40:05;31.33;;;23.58;;
70592;SDS011;58294;42.988;20.338;2023-06-26T01:42:32;36.45;;;25.58;;
70592;SDS011;58294;42.988;20.338;2023-06-26T01:45:00;33.67;;;26.48;;
70592;SDS011;58294;42.988;20.338;2023-06-26T01:47:32;30.05;;;24.27;;
70592;SDS011;58294;42.988;20.338;2023-06-26T01:50:11;32.83;;;23.63;;
70592;SDS011;58294;42.988;20.338;2023-06-26T01:52:43;29.92;;;23.00;;
70592;SDS011;58294;42.988;20.338;2023-06-26T01:55:22;33.85;;;24.05;;
70592;SDS011;58294;42.988;20.338;2023-06-26T01:58:09;36.92;;;25.20;;
70592;SDS011;58294;42.988;20.338;2023-06-26T02:00:36;36.40;;;26.20;;
70592;SDS011;58294;42.988;20.338;2023-06-26T02:03:02;29.77;;;22.77;;
70592;SDS011;58294;42.988;20.338;2023-06-26T02:05:30;28.70;;;20.52;;
70592;SDS011;58294;42.988;20.338;2023-06-26T02:07:58;28.50;;;21.52;;
70592;SDS011;58294;42.988;20.338;2023-06-26T02:10:26;28.05;;;21.27;;
70592;SDS011;58294;42.988;20.338;2023-06-26T02:12:52;30.00;;;21.50;;
70592;SDS011;58294;42.988;20.338;2023-06-26T02:15:17;27.60;;;20.98;;
70592;SDS011;58294;42.988;20.338;2023-06-26T02:17:43;33.78;;;25.08;;
70592;SDS011;58294;42.988;20.338;2023-06-26T02:20:13;29.10;;;25.10;;
70592;SDS011;58294;42.988;20.338;2023-06-26T02:22:40;35.78;;;25.23;;
70592;SDS011;58294;42.988;20.338;2023-06-26T02:25:07;33.35;;;27.05;;
70592;SDS011;58294;42.988;20.338;2023-06-26T02:27:33;37.90;;;27.88;;
70592;SDS011;58294;42.988;20.338;2023-06-26T02:29:59;46.53;;;31.83;;
70592;SDS011;58294;42.988;20.338;2023-06-26T02:32:25;42.72;;;29.88;;
70592;SDS011;58294;42.988;20.338;2023-06-26T02:34:51;40.70;;;28.70;;
70592;SDS011;58294;42.988;20.338;2023-06-26T02:37:17;38.88;;;28.38;;
70592;SDS011;58294;42.988;20.338;2023-06-26T02:39:43;39.28;;;27.08;;
70592;SDS011;58294;42.988;20.338;2023-06-26T02:42:09;44.22;;;29.45;;
70592;SDS011;58294;42.988;20.338;2023-06-26T02:44:34;35.08;;;27.85;;
70592;SDS011;58294;42.988;20.338;2023-06-26T02:47:00;35.25;;;24.25;;
70592;SDS011;58294;42.988;20.338;2023-06-26T02:49:26;33.45;;;24.67;;
70592;SDS011;58294;42.988;20.338;2023-06-26T02:51:52;34.85;;;26.90;;
70592;SDS011;58294;42.988;20.338;2023-06-26T02:54:18;31.35;;;24.85;;
70592;SDS011;58294;42.988;20.338;2023-06-26T02:56:43;33.75;;;25.38;;
70592;SDS011;58294;42.988;20.338;2023-06-26T02:59:09;30.83;;;22.88;;
70592;SDS011;58294;42.988;20.338;2023-06-26T03:01:35;32.72;;;25.13;;
70592;SDS011;58294;42.988;20.338;2023-06-26T03:04:01;30.95;;;24.10;;
70592;SDS011;58294;42.988;20.338;2023-06-26T03:06:27;32.13;;;24.25;;
70592;SDS011;58294;42.988;20.338;2023-06-26T03:08:53;32.38;;;23.88;;
70592;SDS011;58294;42.988;20.338;2023-06-26T03:11:19;30.00;;;23.13;;
70592;SDS011;58294;42.988;20.338;2023-06-26T03:13:45;32.25;;;23.60;;
70592;SDS011;58294;42.988;20.338;2023-06-26T03:16:11;31.20;;;24.15;;
70592;SDS011;58294;42.988;20.338;2023-06-26T03:18:36;26.50;;;22.63;;
70592;SDS011;58294;42.988;20.338;2023-06-26T03:21:02;33.58;;;23.75;;
70592;SDS011;58294;42.988;20.338;2023-06-26T03:23:28;31.30;;;23.77;;
70592;SDS011;58294;42.988;20.338;2023-06-26T03:25:54;30.42;;;22.83;;
70592;SDS011;58294;42.988;20.338;2023-06-26T03:28:20;27.65;;;23.10;;
70592;SDS011;58294;42.988;20.338;2023-06-26T03:30:46;34.95;;;23.38;;
70592;SDS011;58294;42.988;20.338;2023-06-26T03:33:12;28.58;;;22.88;;
70592;SDS011;58294;42.988;20.338;2023-06-26T03:35:37;40.20;;;25.85;;
70592;SDS011;58294;42.988;20.338;2023-06-26T03:38:03;36.45;;;26.83;;
70592;SDS011;58294;42.988;20.338;2023-06-26T03:40:30;32.22;;;24.08;;
70592;SDS011;58294;42.988;20.338;2023-06-26T03:42:56;33.83;;;24.52;;
70592;SDS011;58294;42.988;20.338;2023-06-26T03:45:22;43.58;;;25.55;;
70592;SDS011;58294;42.988;20.338;2023-06-26T03:47:48;37.55;;;26.42;;
70592;SDS011;58294;42.988;20.338;2023-06-26T03:50:17;33.65;;;24.20;;
70592;SDS011;58294;42.988;20.338;2023-06-26T03:52:43;32.65;;;23.70;;
70592;SDS011;58294;42.988;20.338;2023-06-26T03:55:08;31.70;;;23.40;;
70592;SDS011;58294;42.988;20.338;2023-06-26T03:57:34;30.98;;;22.80;;
70592;SDS011;58294;42.988;20.338;2023-06-26T04:00:00;30.30;;;23.33;;
70592;SDS011;58294;42.988;20.338;2023-06-26T04:02:26;32.38;;;22.35;;
70592;SDS011;58294;42.988;20.338;2023-06-26T04:04:52;33.67;;;23.75;;
70592;SDS011;58294;42.988;20.338;2023-06-26T04:07:18;28.85;;;21.77;;
70592;SDS011;58294;42.988;20.338;2023-06-26T04:09:44;76.15;;;31.55;;
70592;SDS011;58294;42.988;20.338;2023-06-26T04:12:10;29.20;;;22.38;;
70592;SDS011;58294;42.988;20.338;2023-06-26T04:14:36;27.40;;;21.73;;
70592;SDS011;58294;42.988;20.338;2023-06-26T04:17:02;29.83;;;22.77;;
70592;SDS011;58294;42.988;20.338;2023-06-26T04:19:28;30.13;;;23.00;;
70592;SDS011;58294;42.988;20.338;2023-06-26T04:21:55;33.95;;;24.05;;
70592;SDS011;58294;42.988;20.338;2023-06-26T04:24:21;29.08;;;24.40;;
70592;SDS011;58294;42.988;20.338;2023-06-26T04:26:47;28.85;;;23.55;;
70592;SDS011;58294;42.988;20.338;2023-06-26T04:29:13;27.75;;;23.02;;
70592;SDS011;58294;42.988;20.338;2023-06-26T04:31:39;31.85;;;22.38;;
70592;SDS011;58294;42.988;20.338;2023-06-26T04:34:05;36.03;;;24.50;;
70592;SDS011;58294;42.988;20.338;2023-06-26T04:36:30;29.83;;;22.92;;
70592;SDS011;58294;42.988;20.338;2023-06-26T04:38:58;33.20;;;23.25;;
70592;SDS011;58294;42.988;20.338;2023-06-26T04:41:24;30.98;;;25.17;;
70592;SDS011;58294;42.988;20.338;2023-06-26T04:43:50;28.05;;;23.05;;
70592;SDS011;58294;42.988;20.338;2023-06-26T04:46:16;28.23;;;22.38;;
70592;SDS011;58294;42.988;20.338;2023-06-26T04:48:42;29.30;;;23.38;;
70592;SDS011;58294;42.988;20.338;2023-06-26T04:51:09;35.45;;;23.92;;
70592;SDS011;58294;42.988;20.338;2023-06-26T04:53:36;28.20;;;22.35;;
70592;SDS011;58294;42.988;20.338;2023-06-26T04:56:02;31.52;;;25.98;;
70592;SDS011;58294;42.988;20.338;2023-06-26T04:58:28;28.35;;;22.77;;
70592;SDS011;58294;42.988;20.338;2023-06-26T05:00:55;25.33;;;21.17;;
70592;SDS011;58294;42.988;20.338;2023-06-26T05:03:21;26.80;;;21.13;;
70592;SDS011;58294;42.988;20.338;2023-06-26T05:05:48;26.10;;;22.10;;
70592;SDS011;58294;42.988;20.338;2023-06-26T05:08:17;33.58;;;23.27;;
70592;SDS011;58294;42.988;20.338;2023-06-26T05:10:43;30.48;;;23.55;;
70592;SDS011;58294;42.988;20.338;2023-06-26T05:13:10;33.42;;;25.85;;
70592;SDS011;58294;42.988;20.338;2023-06-26T05:15:36;29.42;;;23.98;;
70592;SDS011;58294;42.988;20.338;2023-06-26T05:18:02;31.42;;;23.05;;
70592;SDS011;58294;42.988;20.338;2023-06-26T05:20:28;28.50;;;23.50;;
70592;SDS011;58294;42.988;20.338;2023-06-26T05:22:54;35.90;;;25.58;;
70592;SDS011;58294;42.988;20.338;2023-06-26T05:25:20;36.85;;;28.38;;
70592;SDS011;58294;42.988;20.338;2023-06-26T05:27:47;40.45;;;27.90;;
70592;SDS011;58294;42.988;20.338;2023-06-26T05:30:13;30.45;;;24.30;;
70592;SDS011;58294;42.988;20.338;2023-06-26T05:32:39;29.35;;;24.20;;
70592;SDS011;58294;42.988;20.338;2023-06-26T05:35:06;28.67;;;22.08;;
70592;SDS011;58294;42.988;20.338;2023-06-26T05:37:33;26.65;;;22.52;;
70592;SDS011;58294;42.988;20.338;2023-06-26T05:39:59;33.40;;;25.45;;
70592;SDS011;58294;42.988;20.338;2023-06-26T05:42:29;31.50;;;24.30;;
70592;SDS011;58294;42.988;20.338;2023-06-26T05:44:55;28.55;;;23.30;;
70592;SDS011;58294;42.988;20.338;2023-06-26T05:47:21;31.48;;;23.55;;
70592;SDS011;58294;42.988;20.338;2023-06-26T05:49:47;27.35;;;22.73;;
70592;SDS011;58294;42.988;20.338;2023-06-26T05:52:13;29.75;;;24.50;;
70592;SDS011;58294;42.988;20.338;2023-06-26T05:54:39;31.27;;;25.13;;
70592;SDS011;58294;42.988;20.338;2023-06-26T05:57:05;31.58;;;23.85;;
70592;SDS011;58294;42.988;20.338;2023-06-26T05:59:31;31.15;;;24.17;;
70592;SDS011;58294;42.988;20.338;2023-06-26T06:01:57;29.17;;;23.30;;
70592;SDS011;58294;42.988;20.338;2023-06-26T06:04:23;26.67;;;22.13;;
70592;SDS011;58294;42.988;20.338;2023-06-26T06:06:49;27.92;;;22.52;;
70592;SDS011;58294;42.988;20.338;2023-06-26T06:09:15;31.42;;;23.05;;
70592;SDS011;58294;42.988;20.338;2023-06-26T06:11:41;28.67;;;22.35;;
70592;SDS011;58294;42.988;20.338;2023-06-26T06:14:07;29.92;;;24.73;;
70592;SDS011;58294;42.988;20.338;2023-06-26T06:16:32;25.95;;;23.02;;
70592;SDS011;58294;42.988;20.338;2023-06-26T06:18:58;30.70;;;23.50;;
70592;SDS011;58294;42.988;20.338;2023-06-26T06:21:24;30.05;;;23.02;;
70592;SDS011;58294;42.988;20.338;2023-06-26T06:23:50;29.77;;;22.17;;
70592;SDS011;58294;42.988;20.338;2023-06-26T06:26:15;25.98;;;20.80;;
70592;SDS011;58294;42.988;20.338;2023-06-26T06:28:41;32.55;;;23.52;;
70592;SDS011;58294;42.988;20.338;2023-06-26T06:31:07;29.40;;;22.92;;
70592;SDS011;58294;42.988;20.338;2023-06-26T06:33:33;23.73;;;20.08;;
70592;SDS011;58294;42.988;20.338;2023-06-26T06:36:00;25.45;;;18.70;;
70592;SDS011;58294;42.988;20.338;2023-06-26T06:38:26;23.63;;;18.60;;
70592;SDS011;58294;42.988;20.338;2023-06-26T06:40:52;25.88;;;19.40;;
70592;SDS011;58294;42.988;20.338;2023-06-26T06:43:18;24.13;;;18.90;;
70592;SDS011;58294;42.988;20.338;2023-06-26T06:45:44;23.95;;;19.20;;
70592;SDS011;58294;42.988;20.338;2023-06-26T06:48:10;25.73;;;20.02;;
70592;SDS011;58294;42.988;20.338;2023-06-26T06:50:36;24.48;;;20.48;;
70592;SDS011;58294;42.988;20.338;2023-06-26T06:53:01;22.02;;;18.73;;
70592;SDS011;58294;42.988;20.338;2023-06-26T06:55:27;22.27;;;17.10;;
70592;SDS011;58294;42.988;20.338;2023-06-26T06:57:54;21.23;;;16.30;;
70592;SDS011;58294;42.988;20.338;2023-06-26T07:00:20;19.10;;;15.98;;
70592;SDS011;58294;42.988;20.338;2023-06-26T07:02:46;18.30;;;15.05;;
70592;SDS011;58294;42.988;20.338;2023-06-26T07:05:12;18.17;;;15.85;;
70592;SDS011;58294;42.988;20.338;2023-06-26T07:07:38;21.48;;;16.65;;
70592;SDS011;58294;42.988;20.338;2023-06-26T07:10:05;17.80;;;14.80;;
70592;SDS011;58294;42.988;20.338;2023-06-26T07:12:35;19.70;;;14.95;;
70592;SDS011;58294;42.988;20.338;2023-06-26T07:15:03;16.58;;;14.70;;
70592;SDS011;58294;42.988;20.338;2023-06-26T07:17:30;20.27;;;14.98;;
70592;SDS011;58294;42.988;20.338;2023-06-26T07:19:56;16.58;;;13.80;;
70592;SDS011;58294;42.988;20.338;2023-06-26T07:22:23;18.95;;;15.43;;
70592;SDS011;58294;42.988;20.338;2023-06-26T07:24:49;30.67;;;21.92;;
70592;SDS011;58294;42.988;20.338;2023-06-26T07:27:15;19.63;;;14.52;;
70592;SDS011;58294;42.988;20.338;2023-06-26T07:29:41;20.55;;;14.63;;
70592;SDS011;58294;42.988;20.338;2023-06-26T07:32:07;17.83;;;14.52;;
70592;SDS011;58294;42.988;20.338;2023-06-26T07:34:33;20.42;;;14.80;;
70592;SDS011;58294;42.988;20.338;2023-06-26T07:36:59;18.42;;;14.95;;
70592;SDS011;58294;42.988;20.338;2023-06-26T07:39:25;16.85;;;13.95;;
70592;SDS011;58294;42.988;20.338;2023-06-26T07:41:51;14.30;;;12.82;;
70592;SDS011;58294;42.988;20.338;2023-06-26T07:44:17;16.23;;;13.73;;
70592;SDS011;58294;42.988;20.338;2023-06-26T07:46:43;17.02;;;14.10;;
70592;SDS011;58294;42.988;20.338;2023-06-26T07:49:10;17.55;;;15.43;;
70592;SDS011;58294;42.988;20.338;2023-06-26T07:51:37;16.27;;;13.98;;
70592;SDS011;58294;42.988;20.338;2023-06-26T07:54:03;21.33;;;16.27;;
70592;SDS011;58294;42.988;20.338;2023-06-26T07:56:29;18.98;;;16.00;;
70592;SDS011;58294;42.988;20.338;2023-06-26T07:58:55;20.50;;;16.65;;
70592;SDS011;58294;42.988;20.338;2023-06-26T08:01:23;21.30;;;16.33;;
70592;SDS011;58294;42.988;20.338;2023-06-26T08:03:49;19.63;;;16.35;;
70592;SDS011;58294;42.988;20.338;2023-06-26T08:06:15;17.75;;;15.18;;
70592;SDS011;58294;42.988;20.338;2023-06-26T08:08:41;18.58;;;14.52;;
70592;SDS011;58294;42.988;20.338;2023-06-26T08:11:07;23.17;;;15.57;;
70592;SDS011;58294;42.988;20.338;2023-06-26T08:13:33;24.42;;;17.10;;
70592;SDS011;58294;42.988;20.338;2023-06-26T08:15:58;24.38;;;16.23;;
70592;SDS011;58294;42.988;20.338;2023-06-26T08:18:24;23.17;;;15.15;;
70592;SDS011;58294;42.988;20.338;2023-06-26T08:20:50;20.50;;;15.43;;
70592;SDS011;58294;42.988;20.338;2023-06-26T08:23:16;16.15;;;14.38;;
70592;SDS011;58294;42.988;20.338;2023-06-26T08:25:42;19.58;;;15.35;;
70592;SDS011;58294;42.988;20.338;2023-06-26T08:28:08;19.33;;;15.57;;
70592;SDS011;58294;42.988;20.338;2023-06-26T08:30:34;17.67;;;15.60;;
70592;SDS011;58294;42.988;20.338;2023-06-26T08:33:00;18.90;;;16.02;;
70592;SDS011;58294;42.988;20.338;2023-06-26T08:35:25;18.83;;;15.50;;
70592;SDS011;58294;42.988;20.338;2023-06-26T08:37:51;18.42;;;15.95;;
70592;SDS011;58294;42.988;20.338;2023-06-26T08:40:19;20.02;;;15.57;;
70592;SDS011;58294;42.988;20.338;2023-06-26T08:42:46;24.83;;;16.42;;
70592;SDS011;58294;42.988;20.338;2023-06-26T08:45:17;18.42;;;14.15;;
70592;SDS011;58294;42.988;20.338;2023-06-26T08:47:44;17.58;;;13.82;;
70592;SDS011;58294;42.988;20.338;2023-06-26T08:50:12;21.88;;;13.63;;
70592;SDS011;58294;42.988;20.338;2023-06-26T08:55:24;26.10;;;16.10;;
70592;SDS011;58294;42.988;20.338;2023-06-26T08:57:52;15.73;;;13.75;;
70592;SDS011;58294;42.988;20.338;2023-06-26T09:00:18;23.08;;;15.63;;
70592;SDS011;58294;42.988;20.338;2023-06-26T09:02:45;29.52;;;16.70;;
70592;SDS011;58294;42.988;20.338;2023-06-26T09:05:11;16.15;;;13.55;;
70592;SDS011;58294;42.988;20.338;2023-06-26T09:07:37;15.73;;;13.98;;
70592;SDS011;58294;42.988;20.338;2023-06-26T09:10:03;18.20;;;13.45;;
70592;SDS011;58294;42.988;20.338;2023-06-26T09:12:29;19.50;;;14.85;;
70592;SDS011;58294;42.988;20.338;2023-06-26T09:14:56;16.15;;;13.90;;
70592;SDS011;58294;42.988;20.338;2023-06-26T09:17:29;17.58;;;14.90;;
70592;SDS011;58294;42.988;20.338;2023-06-26T09:19:55;19.45;;;13.85;;
70592;SDS011;58294;42.988;20.338;2023-06-26T09:22:21;15.15;;;13.27;;
70592;SDS011;58294;42.988;20.338;2023-06-26T09:24:48;14.23;;;12.73;;
70592;SDS011;58294;42.988;20.338;2023-06-26T09:27:16;21.08;;;14.35;;
70592;SDS011;58294;42.988;20.338;2023-06-26T09:29:45;13.43;;;12.02;;
70592;SDS011;58294;42.988;20.338;2023-06-26T09:32:12;14.88;;;12.43;;
70592;SDS011;58294;42.988;20.338;2023-06-26T09:34:40;15.32;;;12.57;;
70592;SDS011;58294;42.988;20.338;2023-06-26T09:37:07;17.02;;;12.77;;
70592;SDS011;58294;42.988;20.338;2023-06-26T09:39:33;16.90;;;13.95;;
70592;SDS011;58294;42.988;20.338;2023-06-26T09:41:59;39.05;;;17.13;;
70592;SDS011;58294;42.988;20.338;2023-06-26T09:44:27;17.70;;;13.35;;
70592;SDS011;58294;42.988;20.338;2023-06-26T09:46:55;16.48;;;11.93;;
70592;SDS011;58294;42.988;20.338;2023-06-26T09:49:23;17.27;;;12.45;;
70592;SDS011;58294;42.988;20.338;2023-06-26T09:51:49;15.38;;;11.85;;
70592;SDS011;58294;42.988;20.338;2023-06-26T09:54:16;13.52;;;12.15;;
70592;SDS011;58294;42.988;20.338;2023-06-26T09:56:43;15.23;;;12.27;;
70592;SDS011;58294;42.988;20.338;2023-06-26T09:59:09;13.82;;;11.95;;
70592;SDS011;58294;42.988;20.338;2023-06-26T10:01:40;17.15;;;12.60;;
70592;SDS011;58294;42.988;20.338;2023-06-26T10:04:11;21.05;;;14.07;;
70592;SDS011;58294;42.988;20.338;2023-06-26T10:06:38;13.85;;;12.10;;
70592;SDS011;58294;42.988;20.338;2023-06-26T10:09:06;14.93;;;12.68;;
70592;SDS011;58294;42.988;20.338;2023-06-26T10:14:00;16.73;;;12.68;;
70592;SDS011;58294;42.988;20.338;2023-06-26T10:16:27;15.73;;;11.98;;
70592;SDS011;58294;42.988;20.338;2023-06-26T10:19:02;15.55;;;12.80;;
70592;SDS011;58294;42.988;20.338;2023-06-26T10:21:31;15.70;;;11.93;;
70592;SDS011;58294;42.988;20.338;2023-06-26T10:23:59;13.38;;;11.32;;
70592;SDS011;58294;42.988;20.338;2023-06-26T10:26:28;18.13;;;12.23;;
70592;SDS011;58294;42.988;20.338;2023-06-26T10:28:55;13.95;;;12.50;;
70592;SDS011;58294;42.988;20.338;2023-06-26T10:31:27;20.67;;;14.48;;
70592;SDS011;58294;42.988;20.338;2023-06-26T10:33:55;15.80;;;12.43;;
70592;SDS011;58294;42.988;20.338;2023-06-26T10:36:27;13.27;;;11.88;;
70592;SDS011;58294;42.988;20.338;2023-06-26T10:38:55;15.63;;;11.57;;
70592;SDS011;58294;42.988;20.338;2023-06-26T10:41:22;22.42;;;12.00;;
70592;SDS011;58294;42.988;20.338;2023-06-26T10:43:50;15.43;;;12.70;;
70592;SDS011;58294;42.988;20.338;2023-06-26T10:46:52;14.40;;;12.57;;
70592;SDS011;58294;42.988;20.338;2023-06-26T10:49:19;18.77;;;12.55;;
70592;SDS011;58294;42.988;20.338;2023-06-26T10:51:49;13.57;;;12.18;;
70592;SDS011;58294;42.988;20.338;2023-06-26T10:54:16;24.63;;;15.88;;
70592;SDS011;58294;42.988;20.338;2023-06-26T10:56:49;16.38;;;11.88;;
70592;SDS011;58294;42.988;20.338;2023-06-26T10:59:17;22.02;;;12.95;;
70592;SDS011;58294;42.988;20.338;2023-06-26T11:01:54;11.90;;;10.73;;
70592;SDS011;58294;42.988;20.338;2023-06-26T11:04:43;16.55;;;10.85;;
70592;SDS011;58294;42.988;20.338;2023-06-26T11:09:54;11.43;;;10.23;;
70592;SDS011;58294;42.988;20.338;2023-06-26T12:36:10;12.18;;;9.23;;
70592;SDS011;58294;42.988;20.338;2023-06-26T12:38:36;25.13;;;12.18;;
70592;SDS011;58294;42.988;20.338;2023-06-26T12:41:02;12.35;;;9.93;;
70592;SDS011;58294;42.988;20.338;2023-06-26T12:43:28;10.00;;;9.00;;
70592;SDS011;58294;42.988;20.338;2023-06-26T12:45:54;11.32;;;10.05;;
70592;SDS011;58294;42.988;20.338;2023-06-26T12:48:21;9.60;;;8.65;;
70592;SDS011;58294;42.988;20.338;2023-06-26T12:50:47;10.88;;;9.77;;
70592;SDS011;58294;42.988;20.338;2023-06-26T12:53:15;10.52;;;9.52;;
70592;SDS011;58294;42.988;20.338;2023-06-26T12:55:41;10.23;;;9.27;;
70592;SDS011;58294;42.988;20.338;2023-06-26T12:58:07;11.15;;;8.63;;
70592;SDS011;58294;42.988;20.338;2023-06-26T13:00:32;24.35;;;11.80;;
70592;SDS011;58294;42.988;20.338;2023-06-26T13:02:59;11.15;;;9.35;;
70592;SDS011;58294;42.988;20.338;2023-06-26T13:05:24;9.25;;;8.43;;
70592;SDS011;58294;42.988;20.338;2023-06-26T13:07:50;10.35;;;9.25;;
70592;SDS011;58294;42.988;20.338;2023-06-26T13:10:16;10.57;;;8.38;;
70592;SDS011;58294;42.988;20.338;2023-06-26T13:12:42;13.63;;;8.98;;
70592;SDS011;58294;42.988;20.338;2023-06-26T13:15:08;20.15;;;10.20;;
70592;SDS011;58294;42.988;20.338;2023-06-26T13:17:34;12.77;;;9.57;;
70592;SDS011;58294;42.988;20.338;2023-06-26T13:20:00;9.00;;;8.20;;
70592;SDS011;58294;42.988;20.338;2023-06-26T13:22:26;13.82;;;9.15;;
70592;SDS011;58294;42.988;20.338;2023-06-26T13:24:51;14.25;;;9.80;;
70592;SDS011;58294;42.988;20.338;2023-06-26T13:27:18;17.23;;;11.05;;
70592;SDS011;58294;42.988;20.338;2023-06-26T13:29:45;10.15;;;9.23;;
70592;SDS011;58294;42.988;20.338;2023-06-26T13:32:11;12.02;;;10.45;;
70592;SDS011;58294;42.988;20.338;2023-06-26T13:34:37;13.07;;;9.15;;
70592;SDS011;58294;42.988;20.338;2023-06-26T13:37:03;9.05;;;8.15;;
70592;SDS011;58294;42.988;20.338;2023-06-26T13:39:28;10.38;;;8.52;;
70592;SDS011;58294;42.988;20.338;2023-06-26T13:41:54;9.75;;;8.82;;
70592;SDS011;58294;42.988;20.338;2023-06-26T13:44:20;13.68;;;9.05;;
70592;SDS011;58294;42.988;20.338;2023-06-26T13:46:46;9.50;;;8.48;;
70592;SDS011;58294;42.988;20.338;2023-06-26T13:49:12;8.90;;;7.78;;
70592;SDS011;58294;42.988;20.338;2023-06-26T13:51:38;11.90;;;9.15;;
70592;SDS011;58294;42.988;20.338;2023-06-26T13:54:10;9.68;;;7.68;;
70592;SDS011;58294;42.988;20.338;2023-06-26T13:56:36;11.65;;;8.38;;
70592;SDS011;58294;42.988;20.338;2023-06-26T13:59:02;16.52;;;8.57;;
70592;SDS011;58294;42.988;20.338;2023-06-26T14:01:30;9.27;;;8.23;;
70592;SDS011;58294;42.988;20.338;2023-06-26T14:03:57;10.98;;;8.20;;
70592;SDS011;58294;42.988;20.338;2023-06-26T14:06:23;9.38;;;7.55;;
70592;SDS011;58294;42.988;20.338;2023-06-26T14:08:49;9.77;;;7.70;;
70592;SDS011;58294;42.988;20.338;2023-06-26T14:11:15;8.63;;;7.80;;
70592;SDS011;58294;42.988;20.338;2023-06-26T14:13:40;10.77;;;8.68;;
70592;SDS011;58294;42.988;20.338;2023-06-26T14:16:06;9.98;;;6.95;;
70592;SDS011;58294;42.988;20.338;2023-06-26T14:18:32;16.88;;;9.35;;
70592;SDS011;58294;42.988;20.338;2023-06-26T14:20:59;17.00;;;9.73;;
70592;SDS011;58294;42.988;20.338;2023-06-26T14:23:26;9.05;;;7.85;;
70592;SDS011;58294;42.988;20.338;2023-06-26T14:25:51;15.50;;;10.07;;
70592;SDS011;58294;42.988;20.338;2023-06-26T14:28:17;25.10;;;10.60;;
70592;SDS011;58294;42.988;20.338;2023-06-26T14:30:44;10.15;;;7.55;;
70592;SDS011;58294;42.988;20.338;2023-06-26T14:33:10;9.38;;;8.07;;
70592;SDS011;58294;42.988;20.338;2023-06-26T14:35:36;20.67;;;9.63;;
70592;SDS011;58294;42.988;20.338;2023-06-26T14:38:01;16.45;;;8.32;;
70592;SDS011;58294;42.988;20.338;2023-06-26T14:40:27;12.80;;;8.15;;
70592;SDS011;58294;42.988;20.338;2023-06-26T14:42:53;8.82;;;7.05;;
70592;SDS011;58294;42.988;20.338;2023-06-26T14:45:19;9.30;;;6.53;;
70592;SDS011;58294;42.988;20.338;2023-06-26T14:47:45;8.18;;;7.13;;
70592;SDS011;58294;42.988;20.338;2023-06-26T14:50:10;10.63;;;7.28;;
70592;SDS011;58294;42.988;20.338;2023-06-26T14:52:36;11.32;;;6.82;;
70592;SDS011;58294;42.988;20.338;2023-06-26T14:55:02;7.53;;;6.63;;
70592;SDS011;58294;42.988;20.338;2023-06-26T14:57:28;8.65;;;7.70;;
70592;SDS011;58294;42.988;20.338;2023-06-26T14:59:55;17.00;;;8.52;;
70592;SDS011;58294;42.988;20.338;2023-06-26T15:02:21;10.05;;;7.15;;
70592;SDS011;58294;42.988;20.338;2023-06-26T15:04:47;16.02;;;7.65;;
70592;SDS011;58294;42.988;20.338;2023-06-26T15:07:13;7.30;;;6.60;;
70592;SDS011;58294;42.988;20.338;2023-06-26T15:09:39;13.05;;;7.53;;
70592;SDS011;58294;42.988;20.338;2023-06-26T15:12:05;8.98;;;7.28;;
70592;SDS011;58294;42.988;20.338;2023-06-26T15:14:31;8.90;;;6.47;;
70592;SDS011;58294;42.988;20.338;2023-06-26T15:16:57;8.80;;;6.60;;
70592;SDS011;58294;42.988;20.338;2023-06-26T15:19:23;8.57;;;6.82;;
70592;SDS011;58294;42.988;20.338;2023-06-26T15:21:49;9.70;;;6.55;;
70592;SDS011;58294;42.988;20.338;2023-06-26T15:24:15;8.18;;;6.70;;
70592;SDS011;58294;42.988;20.338;2023-06-26T15:26:40;10.00;;;6.75;;
70592;SDS011;58294;42.988;20.338;2023-06-26T15:29:06;7.00;;;6.30;;
70592;SDS011;58294;42.988;20.338;2023-06-26T15:31:32;7.90;;;6.72;;
70592;SDS011;58294;42.988;20.338;2023-06-26T15:33:58;6.85;;;6.25;;
70592;SDS011;58294;42.988;20.338;2023-06-26T15:36:25;6.55;;;5.75;;
70592;SDS011;58294;42.988;20.338;2023-06-26T15:38:52;14.32;;;7.95;;
70592;SDS011;58294;42.988;20.338;2023-06-26T15:41:17;7.47;;;5.90;;
70592;SDS011;58294;42.988;20.338;2023-06-26T15:43:43;7.32;;;6.35;;
70592;SDS011;58294;42.988;20.338;2023-06-26T15:46:09;7.53;;;6.45;;
70592;SDS011;58294;42.988;20.338;2023-06-26T15:48:35;7.72;;;6.45;;